createdAt,value
2023-03-02T00:00:47.988Z,55.29
2023-03-02T00:01:54.115Z,55.00
2023-03-02T00:02:56.662Z,55.26
2023-03-02T00:04:03.783Z,55.25
2023-03-02T00:05:08.003Z,55.21
2023-03-02T00:06:12.251Z,55.71
2023-03-02T00:07:19.947Z,55.24
2023-03-02T00:08:25.154Z,55.69
2023-03-02T00:09:28.649Z,55.63
2023-03-02T00:10:33.077Z,55.10
2023-03-02T00:11:38.044Z,55.17
2023-03-02T00:12:42.628Z,55.56
2023-03-02T00:13:45.630Z,55.71
2023-03-02T00:14:49.247Z,55.47
2023-03-02T00:15:51.881Z,55.39
2023-03-02T00:16:55.461Z,55.53
2023-03-02T00:17:58.053Z,55.38
2023-03-02T00:19:01.688Z,55.57
2023-03-02T00:20:09.919Z,55.33
2023-03-02T00:21:13.639Z,55.85
2023-03-02T00:22:16.141Z,55.55
2023-03-02T00:23:19.896Z,55.67
2023-03-02T00:24:25.285Z,55.53
2023-03-02T00:25:28.940Z,55.59
2023-03-02T00:26:34.913Z,55.53
2023-03-02T00:27:37.703Z,55.83
2023-03-02T00:28:41.298Z,56.00
2023-03-02T00:29:43.837Z,55.72
2023-03-02T00:30:47.416Z,55.65
2023-03-02T00:31:50.087Z,55.85
2023-03-02T00:32:53.730Z,55.84
2023-03-02T00:33:56.886Z,55.45
2023-03-02T00:35:01.062Z,55.92
2023-03-02T00:36:04.252Z,55.92
2023-03-02T00:37:07.881Z,56.04
2023-03-02T00:38:10.346Z,56.06
2023-03-02T00:39:14.293Z,56.24
2023-03-02T00:40:18.839Z,55.85
2023-03-02T00:41:22.902Z,55.91
2023-03-02T00:42:25.480Z,55.82
2023-03-02T00:43:29.174Z,55.96
2023-03-02T00:44:31.841Z,55.85
2023-03-02T00:45:35.339Z,55.93
2023-03-02T00:46:37.993Z,55.40
2023-03-02T00:47:42.530Z,55.79
2023-03-02T00:48:45.579Z,55.59
2023-03-02T00:49:58.226Z,55.21
2023-03-02T00:51:01.775Z,55.18
2023-03-02T00:52:05.483Z,55.19
2023-03-02T00:53:08.804Z,55.65
2023-03-02T00:54:12.929Z,55.29
2023-03-02T00:55:15.521Z,55.49
2023-03-02T00:56:20.881Z,55.69
2023-03-02T00:57:23.774Z,55.20
2023-03-02T00:58:27.808Z,55.27
2023-03-02T00:59:30.616Z,55.31
2023-03-02T01:00:35.749Z,55.50
2023-03-02T01:01:38.830Z,55.20
2023-03-02T01:02:44.611Z,55.29
2023-03-02T01:03:47.455Z,54.97
2023-03-02T01:04:53.326Z,54.72
2023-03-02T01:05:56.508Z,55.46
2023-03-02T01:07:01.624Z,55.66
2023-03-02T01:08:04.318Z,55.18
2023-03-02T01:09:08.134Z,55.54
2023-03-02T01:10:11.807Z,55.01
2023-03-02T01:11:16.382Z,55.67
2023-03-02T01:12:20.326Z,55.35
2023-03-02T01:13:23.779Z,55.22
2023-03-02T01:14:26.981Z,55.21
2023-03-02T01:15:30.757Z,54.83
2023-03-02T01:16:34.332Z,55.04
2023-03-02T01:17:39.971Z,55.05
2023-03-02T01:18:42.623Z,55.51
2023-03-02T01:19:46.286Z,55.97
2023-03-02T01:20:48.723Z,55.73
2023-03-02T01:21:53.405Z,55.31
2023-03-02T01:22:56.108Z,55.38
2023-03-02T01:23:59.934Z,54.81
2023-03-02T01:25:02.565Z,54.84
2023-03-02T01:26:07.687Z,54.81
2023-03-02T01:27:10.981Z,54.74
2023-03-02T01:28:15.936Z,54.98
2023-03-02T01:29:18.488Z,54.62
2023-03-02T01:30:22.166Z,54.91
2023-03-02T01:31:25.757Z,54.68
2023-03-02T01:32:29.376Z,55.07
2023-03-02T01:33:32.264Z,55.18
2023-03-02T01:34:35.855Z,55.08
2023-03-02T01:35:38.363Z,55.25
2023-03-02T01:36:45.668Z,55.36
2023-03-02T01:37:48.169Z,54.94
2023-03-02T01:38:52.147Z,54.83
2023-03-02T01:39:54.874Z,55.34
2023-03-02T01:40:59.773Z,54.94
2023-03-02T01:42:02.200Z,55.33
2023-03-02T01:43:13.967Z,55.07
2023-03-02T01:44:41.917Z,55.01
2023-03-02T01:45:55.219Z,54.82
2023-03-02T01:46:58.353Z,55.28
2023-03-02T01:48:02.897Z,55.06
2023-03-02T01:49:11.207Z,55.51
2023-03-02T01:50:21.243Z,55.13
2023-03-02T01:51:28.073Z,54.92
2023-03-02T01:52:38.404Z,54.83
2023-03-02T01:53:46.996Z,54.70
2023-03-02T01:54:56.161Z,54.22
2023-03-02T01:56:04.148Z,54.66
2023-03-02T01:57:09.204Z,54.75
2023-03-02T01:58:13.899Z,54.94
2023-03-02T01:59:23.958Z,54.95
2023-03-02T02:00:33.502Z,54.43
2023-03-02T02:01:39.340Z,53.94
2023-03-02T02:02:42.684Z,54.02
2023-03-02T02:03:49.990Z,54.30
2023-03-02T02:04:55.846Z,54.89
2023-03-02T02:06:09.512Z,54.61
2023-03-02T02:07:14.556Z,54.38
2023-03-02T02:08:17.088Z,54.11
2023-03-02T02:09:27.687Z,54.04
2023-03-02T02:10:31.583Z,54.64
2023-03-02T02:11:35.395Z,54.83
2023-03-02T02:12:38.149Z,53.83
2023-03-02T02:13:42.145Z,54.61
2023-03-02T02:14:46.011Z,54.21
2023-03-02T02:15:51.360Z,54.42
2023-03-02T02:16:53.924Z,55.03
2023-03-02T02:17:57.800Z,54.93
2023-03-02T02:19:02.070Z,54.87
2023-03-02T02:20:15.081Z,54.91
2023-03-02T02:21:20.261Z,54.29
2023-03-02T02:22:39.313Z,54.57
2023-03-02T02:23:51.122Z,54.72
2023-03-02T02:24:58.675Z,55.01
2023-03-02T02:26:24.837Z,55.04
2023-03-02T02:27:34.193Z,54.71
2023-03-02T02:28:42.392Z,54.40
2023-03-02T02:29:48.737Z,55.11
2023-03-02T02:30:59.404Z,55.21
2023-03-02T02:32:06.925Z,55.19
2023-03-02T02:33:17.054Z,55.07
2023-03-02T02:34:25.432Z,54.88
2023-03-02T02:35:30.567Z,54.58
2023-03-02T02:36:39.010Z,54.74
2023-03-02T02:37:45.635Z,54.88
2023-03-02T02:38:51.890Z,54.50
2023-03-02T02:39:55.118Z,54.55
2023-03-02T02:41:01.507Z,54.73
2023-03-02T02:42:13.182Z,54.59
2023-03-02T02:43:20.334Z,54.06
2023-03-02T02:44:22.983Z,54.65
2023-03-02T02:45:29.446Z,54.46
2023-03-02T02:46:33.325Z,54.66
2023-03-02T02:47:37.411Z,54.57
2023-03-02T02:48:40.432Z,54.60
2023-03-02T02:49:45.170Z,55.05
2023-03-02T02:50:48.182Z,54.25
2023-03-02T02:51:52.033Z,54.63
2023-03-02T02:52:57.751Z,54.40
2023-03-02T02:54:02.938Z,54.22
2023-03-02T02:55:06.845Z,54.39
2023-03-02T02:56:15.093Z,54.13
2023-03-02T02:57:24.786Z,54.43
2023-03-02T02:58:33.996Z,54.85
2023-03-02T02:59:42.839Z,54.96
2023-03-02T03:00:45.337Z,54.80
2023-03-02T03:01:49.865Z,54.59
2023-03-02T03:02:57.864Z,54.39
2023-03-02T03:04:04.257Z,54.57
2023-03-02T03:05:13.840Z,54.28
2023-03-02T03:06:21.124Z,54.26
2023-03-02T03:07:25.500Z,54.37
2023-03-02T03:08:58.023Z,55.04
2023-03-02T03:10:10.201Z,54.44
2023-03-02T03:11:14.859Z,54.83
2023-03-02T03:12:22.006Z,54.53
2023-03-02T03:13:26.677Z,55.00
2023-03-02T03:14:35.608Z,54.94
2023-03-02T03:15:38.886Z,55.27
2023-03-02T03:16:44.844Z,55.31
2023-03-02T03:17:55.347Z,55.18
2023-03-02T03:19:03.391Z,56.11
2023-03-02T03:20:09.558Z,56.26
2023-03-02T03:21:12.064Z,56.12
2023-03-02T03:22:17.757Z,56.12
2023-03-02T03:23:20.231Z,56.19
2023-03-02T03:24:25.283Z,56.37
2023-03-02T03:25:27.848Z,56.13
2023-03-02T03:26:31.692Z,56.05
2023-03-02T03:27:34.407Z,56.30
2023-03-02T03:28:39.389Z,56.38
2023-03-02T03:29:44.745Z,56.69
2023-03-02T03:30:48.523Z,56.76
2023-03-02T03:31:51.191Z,56.23
2023-03-02T03:32:54.653Z,56.46
2023-03-02T03:34:00.695Z,56.79
2023-03-02T03:35:08.650Z,57.06
2023-03-02T03:36:11.455Z,57.47
2023-03-02T03:37:18.010Z,56.67
2023-03-02T03:38:20.778Z,57.00
2023-03-02T03:39:24.295Z,56.43
2023-03-02T03:40:26.983Z,56.53
2023-03-02T03:41:30.522Z,56.57
2023-03-02T03:42:32.960Z,57.00
2023-03-02T03:43:36.642Z,57.26
2023-03-02T03:44:40.777Z,57.59
2023-03-02T03:45:44.489Z,58.18
2023-03-02T03:46:46.973Z,57.92
2023-03-02T03:47:50.384Z,58.11
2023-03-02T03:48:52.971Z,58.36
2023-03-02T03:49:56.827Z,58.31
2023-03-02T03:50:59.823Z,58.45
2023-03-02T03:52:03.712Z,58.22
2023-03-02T03:53:06.390Z,58.03
2023-03-02T03:54:10.842Z,58.42
2023-03-02T03:55:13.843Z,58.25
2023-03-02T03:56:17.925Z,58.50
2023-03-02T03:57:20.452Z,58.87
2023-03-02T03:58:24.346Z,58.28
2023-03-02T03:59:27.806Z,58.28
2023-03-02T04:00:32.893Z,57.98
2023-03-02T04:01:37.389Z,58.33
2023-03-02T04:02:41.033Z,57.89
2023-03-02T04:03:43.603Z,57.64
2023-03-02T04:04:47.239Z,58.32
2023-03-02T04:05:50.029Z,57.98
2023-03-02T04:06:53.848Z,58.25
2023-03-02T04:07:56.343Z,57.91
2023-03-02T04:09:04.759Z,58.07
2023-03-02T04:10:09.766Z,58.58
2023-03-02T04:11:13.308Z,58.30
2023-03-02T04:12:16.268Z,57.72
2023-03-02T04:13:19.798Z,58.02
2023-03-02T04:14:24.165Z,58.31
2023-03-02T04:15:27.851Z,58.13
2023-03-02T04:16:32.523Z,58.25
2023-03-02T04:17:37.052Z,58.57
2023-03-02T04:18:39.686Z,58.49
2023-03-02T04:19:43.340Z,58.31
2023-03-02T04:20:45.954Z,58.18
2023-03-02T04:21:52.524Z,58.47
2023-03-02T04:22:56.628Z,57.94
2023-03-02T04:24:00.574Z,58.09
2023-03-02T04:25:03.182Z,58.30
2023-03-02T04:26:06.974Z,57.74
2023-03-02T04:27:09.894Z,57.69
2023-03-02T04:28:14.592Z,57.65
2023-03-02T04:29:18.375Z,57.24
2023-03-02T04:30:25.307Z,57.94
2023-03-02T04:31:28.282Z,57.45
2023-03-02T04:32:33.465Z,56.98
2023-03-02T04:33:36.049Z,56.97
2023-03-02T04:34:40.012Z,57.02
2023-03-02T04:35:42.517Z,56.82
2023-03-02T04:36:46.677Z,57.05
2023-03-02T04:37:49.413Z,57.54
2023-03-02T04:38:53.297Z,57.23
2023-03-02T04:39:55.847Z,56.86
2023-03-02T04:41:00.401Z,56.77
2023-03-02T04:42:03.294Z,55.74
2023-03-02T04:43:06.956Z,56.42
2023-03-02T04:44:09.650Z,56.91
2023-03-02T04:45:14.613Z,56.67
2023-03-02T04:46:21.098Z,56.03
2023-03-02T04:47:24.634Z,55.75
2023-03-02T04:48:29.297Z,54.94
2023-03-02T04:49:33.017Z,55.39
2023-03-02T04:50:35.453Z,55.10
2023-03-02T04:51:41.726Z,54.24
2023-03-02T04:52:44.276Z,53.98
2023-03-02T04:53:47.996Z,54.02
2023-03-02T04:54:50.461Z,53.56
2023-03-02T04:55:54.165Z,53.74
2023-03-02T04:56:57.356Z,52.86
2023-03-02T04:58:01.024Z,53.34
2023-03-02T04:59:03.648Z,52.84
2023-03-02T05:00:09.956Z,53.43
2023-03-02T05:01:13.314Z,53.73
2023-03-02T05:02:17.142Z,52.80
2023-03-02T05:03:19.689Z,53.08
2023-03-02T05:04:25.135Z,52.34
2023-03-02T05:05:28.712Z,53.03
2023-03-02T05:06:32.732Z,53.78
2023-03-02T05:07:35.818Z,53.47
2023-03-02T05:08:39.527Z,52.83
2023-03-02T05:09:42.088Z,52.77
2023-03-02T05:10:45.742Z,52.12
2023-03-02T05:11:48.477Z,51.34
2023-03-02T05:13:04.900Z,51.35
2023-03-02T05:14:10.632Z,51.90
2023-03-02T05:15:14.344Z,50.82
2023-03-02T05:16:16.897Z,51.71
2023-03-02T05:17:20.572Z,51.33
2023-03-02T05:18:23.403Z,51.50
2023-03-02T05:19:28.478Z,51.34
2023-03-02T05:20:31.791Z,50.77
2023-03-02T05:21:35.798Z,50.57
2023-03-02T05:22:38.651Z,51.48
2023-03-02T05:23:42.991Z,50.58
2023-03-02T05:24:45.541Z,50.90
2023-03-02T05:25:49.037Z,50.90
2023-03-02T05:26:51.451Z,50.83
2023-03-02T05:27:55.010Z,51.00
2023-03-02T05:28:57.485Z,50.89
2023-03-02T05:30:00.985Z,50.77
2023-03-02T05:31:04.892Z,51.02
2023-03-02T05:32:08.493Z,51.55
2023-03-02T05:33:11.242Z,51.21
2023-03-02T05:34:17.395Z,51.65
2023-03-02T05:35:22.594Z,51.12
2023-03-02T05:36:26.294Z,51.72
2023-03-02T05:37:28.905Z,52.00
2023-03-02T05:38:32.930Z,51.95
2023-03-02T05:39:35.416Z,51.30
2023-03-02T05:40:39.626Z,50.75
2023-03-02T05:41:42.715Z,52.11
2023-03-02T05:42:48.739Z,51.31
2023-03-02T05:43:51.525Z,51.49
2023-03-02T05:44:55.085Z,51.85
2023-03-02T05:46:00.671Z,51.49
2023-03-02T05:47:04.537Z,51.86
2023-03-02T05:48:07.634Z,52.33
2023-03-02T05:49:11.375Z,51.71
2023-03-02T05:50:14.165Z,52.02
2023-03-02T05:51:19.160Z,51.98
2023-03-02T05:52:21.831Z,51.89
2023-03-02T05:53:25.556Z,51.89
2023-03-02T05:54:27.970Z,52.57
2023-03-02T05:55:36.941Z,52.51
2023-03-02T05:56:40.462Z,52.81
2023-03-02T05:57:43.031Z,52.75
2023-03-02T05:58:46.507Z,52.67
2023-03-02T05:59:51.054Z,52.84
2023-03-02T06:00:54.477Z,52.92
2023-03-02T06:01:59.094Z,52.84
2023-03-02T06:03:02.790Z,53.18
2023-03-02T06:04:05.636Z,53.20
2023-03-02T06:05:11.947Z,52.88
2023-03-02T06:06:14.605Z,52.58
2023-03-02T06:07:19.703Z,52.48
2023-03-02T06:08:22.522Z,52.17
2023-03-02T06:09:26.388Z,52.78
2023-03-02T06:10:29.354Z,52.85
2023-03-02T06:11:32.892Z,53.41
2023-03-02T06:12:35.410Z,53.32
2023-03-02T06:13:39.335Z,53.23
2023-03-02T06:14:41.965Z,53.32
2023-03-02T06:15:45.664Z,53.52
2023-03-02T06:16:49.520Z,53.94
2023-03-02T06:17:52.178Z,54.35
2023-03-02T06:18:55.666Z,54.17
2023-03-02T06:19:58.125Z,54.61
2023-03-02T06:21:01.788Z,54.12
2023-03-02T06:22:04.783Z,54.13
2023-03-02T06:23:09.885Z,54.11
2023-03-02T06:24:12.325Z,54.63
2023-03-02T06:25:18.252Z,54.88
2023-03-02T06:26:21.964Z,54.93
2023-03-02T06:27:24.327Z,55.70
2023-03-02T06:28:28.230Z,55.11
2023-03-02T06:29:30.727Z,55.11
2023-03-02T06:30:34.741Z,55.03
2023-03-02T06:31:37.419Z,55.33
2023-03-02T06:32:41.189Z,55.45
2023-03-02T06:33:43.699Z,55.61
2023-03-02T06:34:47.307Z,55.71
2023-03-02T06:35:50.609Z,56.14
2023-03-02T06:36:55.325Z,56.95
2023-03-02T06:37:57.761Z,56.86
2023-03-02T06:39:02.608Z,56.39
2023-03-02T06:40:08.878Z,56.32
2023-03-02T06:41:12.584Z,56.44
2023-03-02T06:42:15.021Z,56.15
2023-03-02T06:43:18.733Z,55.69
2023-03-02T06:44:21.239Z,56.36
2023-03-02T06:45:24.910Z,56.61
2023-03-02T06:46:27.761Z,57.57
2023-03-02T06:47:31.775Z,57.81
2023-03-02T06:48:34.267Z,56.72
2023-03-02T06:49:38.069Z,56.28
2023-03-02T06:50:40.472Z,56.68
2023-03-02T06:51:44.004Z,56.88
2023-03-02T06:52:46.653Z,57.09
2023-03-02T06:53:50.185Z,56.33
2023-03-02T06:54:54.367Z,55.54
2023-03-02T06:55:58.008Z,55.41
2023-03-02T06:57:00.493Z,55.86
2023-03-02T06:58:04.107Z,55.85
2023-03-02T06:59:06.610Z,56.25
2023-03-02T07:00:17.317Z,56.22
2023-03-02T07:01:20.067Z,56.00
2023-03-02T07:02:25.057Z,56.10
2023-03-02T07:03:28.930Z,56.52
2023-03-02T07:04:31.495Z,56.51
2023-03-02T07:05:36.057Z,57.06
2023-03-02T07:06:38.747Z,56.92
2023-03-02T07:07:42.736Z,57.30
2023-03-02T07:08:45.993Z,56.90
2023-03-02T07:09:49.685Z,56.71
2023-03-02T07:10:54.574Z,56.58
2023-03-02T07:11:57.073Z,56.23
2023-03-02T07:13:00.553Z,55.84
2023-03-02T07:14:03.568Z,56.08
2023-03-02T07:15:12.326Z,56.43
2023-03-02T07:16:16.020Z,56.02
2023-03-02T07:17:19.794Z,56.14
2023-03-02T07:18:22.202Z,55.93
2023-03-02T07:19:25.775Z,55.53
2023-03-02T07:20:28.190Z,56.04
2023-03-02T07:21:32.378Z,56.03
2023-03-02T07:22:36.173Z,55.63
2023-03-02T07:23:38.624Z,55.13
2023-03-02T07:24:44.055Z,54.95
2023-03-02T07:25:48.417Z,56.06
2023-03-02T07:26:52.306Z,55.45
2023-03-02T07:27:55.717Z,55.94
2023-03-02T07:28:59.639Z,56.11
2023-03-02T07:30:03.361Z,55.78
2023-03-02T07:31:06.388Z,55.22
2023-03-02T07:32:12.385Z,55.50
2023-03-02T07:33:15.462Z,55.88
2023-03-02T07:34:18.988Z,55.42
2023-03-02T07:35:22.485Z,55.27
2023-03-02T07:36:25.171Z,54.25
2023-03-02T07:37:28.790Z,54.05
2023-03-02T07:38:31.274Z,54.90
2023-03-02T07:39:34.812Z,52.65
2023-03-02T07:40:41.002Z,52.20
2023-03-02T07:41:45.574Z,52.14
2023-03-02T07:42:49.742Z,52.32
2023-03-02T07:43:54.130Z,51.47
2023-03-02T07:44:56.579Z,52.05
2023-03-02T07:46:01.036Z,51.38
2023-03-02T07:47:03.807Z,51.89
2023-03-02T07:48:08.031Z,51.44
2023-03-02T07:49:11.671Z,51.91
2023-03-02T07:50:14.171Z,52.47
2023-03-02T07:51:17.950Z,52.25
2023-03-02T07:52:21.488Z,52.54
2023-03-02T07:53:23.935Z,52.63
2023-03-02T07:54:30.706Z,52.19
2023-03-02T07:55:33.358Z,53.15
2023-03-02T07:56:36.969Z,53.54
2023-03-02T07:57:40.797Z,52.82
2023-03-02T07:58:45.898Z,52.48
2023-03-02T07:59:49.580Z,52.84
2023-03-02T08:00:52.005Z,53.12
2023-03-02T08:01:55.853Z,52.70
2023-03-02T08:02:59.470Z,53.16
2023-03-02T08:04:01.889Z,52.53
2023-03-02T08:05:05.938Z,52.57
2023-03-02T08:06:10.395Z,52.76
2023-03-02T08:07:13.934Z,53.16
2023-03-02T08:08:16.384Z,54.13
2023-03-02T08:09:19.908Z,53.62
2023-03-02T08:10:23.170Z,53.33
2023-03-02T08:11:26.698Z,53.22
2023-03-02T08:12:29.529Z,52.91
2023-03-02T08:13:33.082Z,53.19
2023-03-02T08:14:37.652Z,52.84
2023-03-02T08:15:41.634Z,52.64
2023-03-02T08:16:45.146Z,52.66
2023-03-02T08:17:47.556Z,52.35
2023-03-02T08:18:51.202Z,52.60
2023-03-02T08:19:53.656Z,52.32
2023-03-02T08:20:58.044Z,52.17
2023-03-02T08:22:01.368Z,52.91
2023-03-02T08:23:04.879Z,53.00
2023-03-02T08:24:08.142Z,53.80
2023-03-02T08:25:11.707Z,53.25
2023-03-02T08:26:17.483Z,53.11
2023-03-02T08:27:20.124Z,53.06
2023-03-02T08:28:24.508Z,52.83
2023-03-02T08:29:27.614Z,53.32
2023-03-02T08:30:32.657Z,53.10
2023-03-02T08:31:35.733Z,54.17
2023-03-02T08:32:39.560Z,54.17
2023-03-02T08:33:43.195Z,54.05
2023-03-02T08:34:45.643Z,54.16
2023-03-02T08:35:56.678Z,53.28
2023-03-02T08:37:00.814Z,53.13
2023-03-02T08:38:03.832Z,54.22
2023-03-02T08:39:07.513Z,54.15
2023-03-02T08:40:11.307Z,54.28
2023-03-02T08:41:18.268Z,54.34
2023-03-02T08:42:21.892Z,54.10
2023-03-02T08:43:27.184Z,54.29
2023-03-02T08:44:29.633Z,54.65
2023-03-02T08:45:36.190Z,54.32
2023-03-02T08:46:39.751Z,53.68
2023-03-02T08:47:42.083Z,54.45
2023-03-02T08:48:46.042Z,53.98
2023-03-02T08:49:50.751Z,54.13
2023-03-02T08:50:58.944Z,54.14
2023-03-02T08:52:01.430Z,53.72
2023-03-02T08:53:05.002Z,53.55
2023-03-02T08:54:08.814Z,53.07
2023-03-02T08:55:11.619Z,52.45
2023-03-02T08:56:20.325Z,54.33
2023-03-02T08:57:23.881Z,52.20
2023-03-02T08:58:26.391Z,52.57
2023-03-02T08:59:29.903Z,52.29
2023-03-02T09:00:34.818Z,53.04
2023-03-02T09:01:39.326Z,53.15
2023-03-02T09:02:41.964Z,53.80
2023-03-02T09:03:45.624Z,53.63
2023-03-02T09:04:49.078Z,52.69
2023-03-02T09:05:51.628Z,52.63
2023-03-02T09:06:55.166Z,52.33
2023-03-02T09:07:57.675Z,53.39
2023-03-02T09:09:01.335Z,53.20
2023-03-02T09:10:04.248Z,53.07
2023-03-02T09:11:08.190Z,53.12
2023-03-02T09:12:11.855Z,53.98
2023-03-02T09:13:14.345Z,55.23
2023-03-02T09:14:18.024Z,54.23
2023-03-02T09:15:20.430Z,54.03
2023-03-02T09:16:26.238Z,54.41
2023-03-02T09:17:29.802Z,54.30
2023-03-02T09:18:32.751Z,53.93
2023-03-02T09:19:44.292Z,53.67
2023-03-02T09:20:51.796Z,53.54
2023-03-02T09:21:54.149Z,53.82
2023-03-02T09:22:57.931Z,53.58
2023-03-02T09:24:00.486Z,54.03
2023-03-02T09:25:04.093Z,54.95
2023-03-02T09:26:06.707Z,54.18
2023-03-02T09:27:10.387Z,54.91
2023-03-02T09:28:12.865Z,55.35
2023-03-02T09:29:16.416Z,54.89
2023-03-02T09:30:19.024Z,55.14
2023-03-02T09:31:22.648Z,55.37
2023-03-02T09:32:27.751Z,55.34
2023-03-02T09:33:32.279Z,54.59
2023-03-02T09:34:36.036Z,54.23
2023-03-02T09:35:39.480Z,53.26
2023-03-02T09:36:43.073Z,54.43
2023-03-02T09:37:46.614Z,54.13
2023-03-02T09:38:50.691Z,53.83
2023-03-02T09:39:54.554Z,53.29
2023-03-02T09:41:23.344Z,53.13
2023-03-02T09:42:44.617Z,52.68
2023-03-02T09:43:58.168Z,51.73
2023-03-02T09:45:20.809Z,51.31
2023-03-02T09:46:29.056Z,52.00
2023-03-02T09:47:38.681Z,52.68
2023-03-02T09:48:49.907Z,52.50
2023-03-02T09:50:05.942Z,52.00
2023-03-02T09:51:22.330Z,51.30
2023-03-02T09:52:31.900Z,51.25
2023-03-02T09:53:44.036Z,51.16
2023-03-02T09:54:47.349Z,50.56
2023-03-02T09:55:55.145Z,51.33
2023-03-02T09:56:59.833Z,50.64
2023-03-02T09:58:05.130Z,50.54
2023-03-02T09:59:19.536Z,50.13
2023-03-02T10:00:30.347Z,49.86
2023-03-02T10:01:41.765Z,49.67
2023-03-02T10:02:49.033Z,50.03
2023-03-02T10:03:58.107Z,49.74
2023-03-02T10:05:11.285Z,49.29
2023-03-02T10:06:13.811Z,49.03
2023-03-02T10:07:20.645Z,49.00
2023-03-02T10:08:27.227Z,49.49
2023-03-02T10:09:30.531Z,49.45
2023-03-02T10:10:37.875Z,48.26
2023-03-02T10:11:56.202Z,48.11
2023-03-02T10:13:12.401Z,47.85
2023-03-02T10:14:20.813Z,48.61
2023-03-02T10:15:30.581Z,48.90
2023-03-02T10:16:38.559Z,48.39
2023-03-02T10:17:54.371Z,49.18
2023-03-02T10:19:08.206Z,48.46
2023-03-02T10:20:15.221Z,49.02
2023-03-02T10:21:23.852Z,48.56
2023-03-02T10:22:31.731Z,48.61
2023-03-02T10:23:47.513Z,48.65
2023-03-02T10:24:55.101Z,48.20
2023-03-02T10:26:06.466Z,48.84
2023-03-02T10:27:19.175Z,48.81
2023-03-02T10:28:24.249Z,49.34
2023-03-02T10:29:40.973Z,49.94
2023-03-02T10:30:45.369Z,50.07
2023-03-02T10:31:52.919Z,50.15
2023-03-02T10:33:00.848Z,50.67
2023-03-02T10:34:04.180Z,51.62
2023-03-02T10:35:15.736Z,51.67
2023-03-02T10:36:23.752Z,51.37
2023-03-02T10:37:31.873Z,52.63
2023-03-02T10:38:38.187Z,52.88
2023-03-02T10:39:41.779Z,53.06
2023-03-02T10:40:47.985Z,53.39
2023-03-02T10:41:54.990Z,53.03
2023-03-02T10:42:59.724Z,53.00
2023-03-02T10:44:07.661Z,53.24
2023-03-02T10:45:24.704Z,53.02
2023-03-02T10:46:27.935Z,53.21
2023-03-02T10:47:31.615Z,53.10
2023-03-02T10:48:49.365Z,53.10
2023-03-02T10:49:53.393Z,53.30
2023-03-02T10:50:58.239Z,53.67
2023-03-02T10:52:03.709Z,53.35
2023-03-02T10:53:08.483Z,53.53
2023-03-02T10:54:13.284Z,54.48
2023-03-02T10:55:17.682Z,54.19
2023-03-02T10:56:21.682Z,54.47
2023-03-02T10:57:31.732Z,54.57
2023-03-02T10:58:34.554Z,53.82
2023-03-02T10:59:45.122Z,53.92
2023-03-02T11:00:58.172Z,53.37
2023-03-02T11:02:00.721Z,53.64
2023-03-02T11:03:20.900Z,53.53
2023-03-02T11:04:24.755Z,53.38
2023-03-02T11:05:31.946Z,53.69
2023-03-02T11:06:36.102Z,53.01
2023-03-02T11:07:39.380Z,53.10
2023-03-02T11:08:43.063Z,52.56
2023-03-02T11:09:59.545Z,52.80
2023-03-02T11:11:05.295Z,52.79
2023-03-02T11:12:14.844Z,53.30
2023-03-02T11:13:20.685Z,51.99
2023-03-02T11:14:24.006Z,51.80
2023-03-02T11:15:31.207Z,51.85
2023-03-02T11:16:34.662Z,51.70
2023-03-02T11:17:39.563Z,50.80
2023-03-02T11:18:49.797Z,50.48
2023-03-02T11:19:53.660Z,50.34
2023-03-02T11:21:01.111Z,49.94
2023-03-02T11:22:14.227Z,49.31
2023-03-02T11:23:25.474Z,48.74
2023-03-02T11:24:34.672Z,48.36
2023-03-02T11:25:40.382Z,48.85
2023-03-02T11:26:50.182Z,48.74
2023-03-02T11:27:58.804Z,48.74
2023-03-02T11:29:06.319Z,47.99
2023-03-02T11:30:16.168Z,48.19
2023-03-02T11:31:27.997Z,47.48
2023-03-02T11:32:38.259Z,47.63
2023-03-02T11:33:46.477Z,46.98
2023-03-02T11:34:53.101Z,46.79
2023-03-02T11:36:04.306Z,46.79
2023-03-02T11:37:21.699Z,46.30
2023-03-02T11:38:27.397Z,45.03
2023-03-02T11:39:46.371Z,45.48
2023-03-02T11:41:00.065Z,44.33
2023-03-02T11:42:03.774Z,44.51
2023-03-02T11:43:07.912Z,43.96
2023-03-02T11:44:16.179Z,43.46
2023-03-02T11:45:23.966Z,42.40
2023-03-02T11:46:30.702Z,41.56
2023-03-02T11:47:35.524Z,41.60
2023-03-02T11:48:43.015Z,42.21
2023-03-02T11:49:51.295Z,42.31
2023-03-02T11:50:59.237Z,41.92
2023-03-02T11:52:03.111Z,41.95
2023-03-02T11:53:09.348Z,41.06
2023-03-02T11:54:29.005Z,41.83
2023-03-02T11:55:45.902Z,42.22
2023-03-02T11:56:48.261Z,42.88
2023-03-02T11:57:55.032Z,44.80
2023-03-02T11:59:00.262Z,43.66
2023-03-02T12:00:04.842Z,43.39
2023-03-02T12:01:11.155Z,43.16
2023-03-02T12:02:15.762Z,43.16
2023-03-02T12:03:25.919Z,42.70
2023-03-02T12:04:33.311Z,43.74
2023-03-02T12:05:40.157Z,42.99
2023-03-02T12:06:46.248Z,44.55
2023-03-02T12:07:59.331Z,44.76
2023-03-02T12:09:30.973Z,45.01
2023-03-02T12:10:39.068Z,45.21
2023-03-02T12:11:42.675Z,45.39
2023-03-02T12:12:59.527Z,46.29
2023-03-02T12:14:05.416Z,46.27
2023-03-02T12:15:38.271Z,45.63
2023-03-02T12:16:43.266Z,45.07
2023-03-02T12:17:45.575Z,44.48
2023-03-02T12:18:50.033Z,43.55
2023-03-02T12:19:55.493Z,43.45
2023-03-02T12:21:04.361Z,43.89
2023-03-02T12:22:12.572Z,43.95
2023-03-02T12:23:24.925Z,43.89
2023-03-02T12:24:31.019Z,46.16
2023-03-02T12:25:51.560Z,46.39
2023-03-02T12:27:03.948Z,46.68
2023-03-02T12:28:06.324Z,49.05
2023-03-02T12:29:24.988Z,50.08
2023-03-02T12:30:30.520Z,50.50
2023-03-02T12:31:45.422Z,49.89
2023-03-02T12:33:02.349Z,48.95
2023-03-02T12:34:25.837Z,48.78
2023-03-02T12:35:32.386Z,49.01
2023-03-02T12:36:44.289Z,48.44
2023-03-02T12:37:53.509Z,48.49
2023-03-02T12:39:12.039Z,48.48
2023-03-02T12:40:38.761Z,48.40
2023-03-02T12:42:00.746Z,48.93
2023-03-02T12:43:21.701Z,47.76
2023-03-02T12:44:38.762Z,48.29
2023-03-02T12:45:54.925Z,49.72
2023-03-02T12:47:03.030Z,49.64
2023-03-02T12:48:22.657Z,49.47
2023-03-02T12:49:36.431Z,49.75
2023-03-02T12:50:40.892Z,48.94
2023-03-02T12:51:54.189Z,48.97
2023-03-02T12:53:03.739Z,48.78
2023-03-02T12:54:08.828Z,48.56
2023-03-02T12:55:19.429Z,49.19
2023-03-02T12:56:24.592Z,50.03
2023-03-02T12:57:28.071Z,50.91
2023-03-02T12:58:32.751Z,51.03
2023-03-02T12:59:37.216Z,51.42
2023-03-02T13:00:41.027Z,50.42
2023-03-02T13:01:43.547Z,50.62
2023-03-02T13:02:49.656Z,50.09
2023-03-02T13:03:53.915Z,50.48
2023-03-02T13:04:58.900Z,51.13
2023-03-02T13:06:02.882Z,51.13
2023-03-02T13:07:06.714Z,50.71
2023-03-02T13:08:17.737Z,50.60
2023-03-02T13:09:21.645Z,51.18
2023-03-02T13:10:31.006Z,52.53
2023-03-02T13:11:36.235Z,52.06
2023-03-02T13:12:46.477Z,51.55
2023-03-02T13:13:50.046Z,51.48
2023-03-02T13:14:56.597Z,52.32
2023-03-02T13:16:00.433Z,52.45
2023-03-02T13:17:04.091Z,52.68
2023-03-02T13:18:07.680Z,52.85
2023-03-02T13:19:17.200Z,52.23
2023-03-02T13:20:22.936Z,51.98
2023-03-02T13:21:33.399Z,52.22
2023-03-02T13:22:36.713Z,51.91
2023-03-02T13:23:47.786Z,51.92
2023-03-02T13:24:57.982Z,51.86
2023-03-02T13:26:03.075Z,52.44
2023-03-02T13:27:07.115Z,52.27
2023-03-02T13:28:27.993Z,52.53
2023-03-02T13:29:31.946Z,52.06
2023-03-02T13:30:41.958Z,52.41
2023-03-02T13:31:44.381Z,52.16
2023-03-02T13:32:47.698Z,52.72
2023-03-02T13:33:51.060Z,52.09
2023-03-02T13:34:56.512Z,51.77
2023-03-02T13:35:59.449Z,51.37
2023-03-02T13:37:02.744Z,51.79
2023-03-02T13:38:15.253Z,51.83
2023-03-02T13:39:22.177Z,51.49
2023-03-02T13:40:35.753Z,50.11
2023-03-02T13:41:40.743Z,50.34
2023-03-02T13:42:43.296Z,50.52
2023-03-02T13:43:46.665Z,50.06
2023-03-02T13:44:49.457Z,49.74
2023-03-02T13:45:54.894Z,48.90
2023-03-02T13:46:58.724Z,47.53
2023-03-02T13:48:15.393Z,46.87
2023-03-02T13:49:28.779Z,45.58
2023-03-02T13:50:32.406Z,44.10
2023-03-02T13:51:39.284Z,43.46
2023-03-02T13:52:41.785Z,42.79
2023-03-02T13:53:54.654Z,43.28
2023-03-02T13:54:59.853Z,44.63
2023-03-02T13:56:03.473Z,45.42
2023-03-02T13:57:06.983Z,46.56
2023-03-02T13:58:15.053Z,45.69
2023-03-02T13:59:21.193Z,46.43
2023-03-02T14:00:30.720Z,47.71
2023-03-02T14:01:34.405Z,48.25
2023-03-02T14:02:36.998Z,48.77
2023-03-02T14:03:40.628Z,49.68
2023-03-02T14:04:43.410Z,50.02
2023-03-02T14:05:46.852Z,50.60
2023-03-02T14:06:50.643Z,50.67